<?xml version="1.0" encoding="UTF-8" standalone="no" ?>
<gpx xmlns="http://www.topografix.com/GPX/1/1" xmlns:xsi="http://www.w3.org/2001/XMLSchema-instance" xsi:schemaLocation="http://www.topografix.com/GPX/1/1 http://www.topografix.com/GPX/1/1/gpx.xsd" version="1.1" creator="VisuGPX - https://www.visugpx.com">
  <metadata>
    <name>Entrainement Trail Collet Redon -Parrouvier</name>
    <desc><![CDATA[Entrainement trail VENELLES vers le Collet Redon et Parrouvier  ]]></desc>
  </metadata>
  <trk>
    <name><![CDATA[20170916124458-l6hWA]]></name>
    <trkseg>
      <trkpt lat="43.59688" lon="5.49775">
        <ele>408</ele>
        <time>2017-09-03T15:42:04Z</time>
      </trkpt>
      <trkpt lat="43.59725" lon="5.49785">
        <ele>408</ele>
        <time>2017-09-03T15:42:19Z</time>
      </trkpt>
      <trkpt lat="43.59745" lon="5.4981">
        <ele>407</ele>
        <time>2017-09-03T15:42:34Z</time>
      </trkpt>
      <trkpt lat="43.5975" lon="5.49871">
        <ele>399</ele>
        <time>2017-09-03T15:42:50Z</time>
      </trkpt>
      <trkpt lat="43.59755" lon="5.49888">
        <ele>399</ele>
        <time>2017-09-03T15:43:16Z</time>
      </trkpt>
      <trkpt lat="43.59748" lon="5.49909">
        <ele>405</ele>
        <time>2017-09-03T15:44:12Z</time>
      </trkpt>
      <trkpt lat="43.59757" lon="5.4996">
        <ele>400</ele>
        <time>2017-09-03T15:44:27Z</time>
      </trkpt>
      <trkpt lat="43.59772" lon="5.50021">
        <ele>403</ele>
        <time>2017-09-03T15:44:43Z</time>
      </trkpt>
      <trkpt lat="43.59776" lon="5.50062">
        <ele>403</ele>
        <time>2017-09-03T15:44:59Z</time>
      </trkpt>
      <trkpt lat="43.59784" lon="5.50106">
        <ele>406</ele>
        <time>2017-09-03T15:45:14Z</time>
      </trkpt>
      <trkpt lat="43.598" lon="5.50152">
        <ele>406</ele>
        <time>2017-09-03T15:45:30Z</time>
      </trkpt>
      <trkpt lat="43.59817" lon="5.50182">
        <ele>410</ele>
        <time>2017-09-03T15:45:45Z</time>
      </trkpt>
      <trkpt lat="43.59837" lon="5.50213">
        <ele>414</ele>
        <time>2017-09-03T15:46:00Z</time>
      </trkpt>
      <trkpt lat="43.59863" lon="5.50195">
        <ele>412</ele>
        <time>2017-09-03T15:46:16Z</time>
      </trkpt>
      <trkpt lat="43.59893" lon="5.50171">
        <ele>411</ele>
        <time>2017-09-03T15:46:32Z</time>
      </trkpt>
      <trkpt lat="43.5993" lon="5.5017">
        <ele>412</ele>
        <time>2017-09-03T15:46:48Z</time>
      </trkpt>
      <trkpt lat="43.59955" lon="5.50162">
        <ele>407</ele>
        <time>2017-09-03T15:47:03Z</time>
      </trkpt>
      <trkpt lat="43.5998" lon="5.50166">
        <ele>409</ele>
        <time>2017-09-03T15:47:19Z</time>
      </trkpt>
      <trkpt lat="43.60009" lon="5.50153">
        <ele>412</ele>
        <time>2017-09-03T15:47:34Z</time>
      </trkpt>
      <trkpt lat="43.6003" lon="5.50138">
        <ele>410</ele>
        <time>2017-09-03T15:47:50Z</time>
      </trkpt>
      <trkpt lat="43.60066" lon="5.50117">
        <ele>410</ele>
        <time>2017-09-03T15:48:05Z</time>
      </trkpt>
      <trkpt lat="43.60105" lon="5.50106">
        <ele>411</ele>
        <time>2017-09-03T15:48:20Z</time>
      </trkpt>
      <trkpt lat="43.60139" lon="5.50116">
        <ele>413</ele>
        <time>2017-09-03T15:48:35Z</time>
      </trkpt>
      <trkpt lat="43.60164" lon="5.50093">
        <ele>411</ele>
        <time>2017-09-03T15:48:51Z</time>
      </trkpt>
      <trkpt lat="43.60204" lon="5.50066">
        <ele>409</ele>
        <time>2017-09-03T15:49:07Z</time>
      </trkpt>
      <trkpt lat="43.60229" lon="5.50065">
        <ele>412</ele>
        <time>2017-09-03T15:49:22Z</time>
      </trkpt>
      <trkpt lat="43.60257" lon="5.50062">
        <ele>418</ele>
        <time>2017-09-03T15:49:38Z</time>
      </trkpt>
      <trkpt lat="43.60286" lon="5.50051">
        <ele>416</ele>
        <time>2017-09-03T15:49:53Z</time>
      </trkpt>
      <trkpt lat="43.60292" lon="5.50033">
        <ele>414</ele>
        <time>2017-09-03T15:50:13Z</time>
      </trkpt>
      <trkpt lat="43.60314" lon="5.50009">
        <ele>412</ele>
        <time>2017-09-03T15:50:28Z</time>
      </trkpt>
      <trkpt lat="43.60339" lon="5.50033">
        <ele>404</ele>
        <time>2017-09-03T15:50:43Z</time>
      </trkpt>
      <trkpt lat="43.6034" lon="5.50063">
        <ele>410</ele>
        <time>2017-09-03T15:50:59Z</time>
      </trkpt>
      <trkpt lat="43.60336" lon="5.50104">
        <ele>413</ele>
        <time>2017-09-03T15:51:15Z</time>
      </trkpt>
      <trkpt lat="43.60321" lon="5.50134">
        <ele>423</ele>
        <time>2017-09-03T15:51:31Z</time>
      </trkpt>
      <trkpt lat="43.60294" lon="5.50141">
        <ele>423</ele>
        <time>2017-09-03T15:51:46Z</time>
      </trkpt>
      <trkpt lat="43.60264" lon="5.5014">
        <ele>424</ele>
        <time>2017-09-03T15:52:02Z</time>
      </trkpt>
      <trkpt lat="43.60227" lon="5.50141">
        <ele>421</ele>
        <time>2017-09-03T15:52:17Z</time>
      </trkpt>
      <trkpt lat="43.60187" lon="5.50139">
        <ele>419</ele>
        <time>2017-09-03T15:52:33Z</time>
      </trkpt>
      <trkpt lat="43.60144" lon="5.50148">
        <ele>415</ele>
        <time>2017-09-03T15:52:48Z</time>
      </trkpt>
      <trkpt lat="43.60105" lon="5.50148">
        <ele>414</ele>
        <time>2017-09-03T15:53:04Z</time>
      </trkpt>
      <trkpt lat="43.60069" lon="5.50167">
        <ele>413</ele>
        <time>2017-09-03T15:53:20Z</time>
      </trkpt>
      <trkpt lat="43.60031" lon="5.50181">
        <ele>415</ele>
        <time>2017-09-03T15:53:35Z</time>
      </trkpt>
      <trkpt lat="43.59996" lon="5.50206">
        <ele>415</ele>
        <time>2017-09-03T15:53:51Z</time>
      </trkpt>
      <trkpt lat="43.60006" lon="5.50223">
        <ele>415</ele>
        <time>2017-09-03T15:54:13Z</time>
      </trkpt>
      <trkpt lat="43.60018" lon="5.50249">
        <ele>416</ele>
        <time>2017-09-03T15:54:29Z</time>
      </trkpt>
      <trkpt lat="43.60048" lon="5.50251">
        <ele>413</ele>
        <time>2017-09-03T15:54:44Z</time>
      </trkpt>
      <trkpt lat="43.60077" lon="5.50232">
        <ele>414</ele>
        <time>2017-09-03T15:55:00Z</time>
      </trkpt>
      <trkpt lat="43.60104" lon="5.50216">
        <ele>415</ele>
        <time>2017-09-03T15:55:15Z</time>
      </trkpt>
      <trkpt lat="43.6014" lon="5.50215">
        <ele>416</ele>
        <time>2017-09-03T15:55:31Z</time>
      </trkpt>
      <trkpt lat="43.60164" lon="5.5024">
        <ele>416</ele>
        <time>2017-09-03T15:55:47Z</time>
      </trkpt>
      <trkpt lat="43.60181" lon="5.50265">
        <ele>415</ele>
        <time>2017-09-03T15:56:03Z</time>
      </trkpt>
      <trkpt lat="43.60208" lon="5.5029">
        <ele>415</ele>
        <time>2017-09-03T15:56:18Z</time>
      </trkpt>
      <trkpt lat="43.60232" lon="5.5031">
        <ele>414</ele>
        <time>2017-09-03T15:56:34Z</time>
      </trkpt>
      <trkpt lat="43.60255" lon="5.50307">
        <ele>409</ele>
        <time>2017-09-03T15:56:50Z</time>
      </trkpt>
      <trkpt lat="43.60272" lon="5.50282">
        <ele>409</ele>
        <time>2017-09-03T15:57:06Z</time>
      </trkpt>
      <trkpt lat="43.60284" lon="5.50242">
        <ele>417</ele>
        <time>2017-09-03T15:57:22Z</time>
      </trkpt>
      <trkpt lat="43.60288" lon="5.50212">
        <ele>418</ele>
        <time>2017-09-03T15:57:38Z</time>
      </trkpt>
      <trkpt lat="43.60297" lon="5.50186">
        <ele>419</ele>
        <time>2017-09-03T15:57:53Z</time>
      </trkpt>
      <trkpt lat="43.6031" lon="5.50161">
        <ele>422</ele>
        <time>2017-09-03T15:58:08Z</time>
      </trkpt>
      <trkpt lat="43.60323" lon="5.5016">
        <ele>421</ele>
        <time>2017-09-03T15:58:28Z</time>
      </trkpt>
      <trkpt lat="43.60325" lon="5.50187">
        <ele>418</ele>
        <time>2017-09-03T15:58:44Z</time>
      </trkpt>
      <trkpt lat="43.60327" lon="5.50214">
        <ele>415</ele>
        <time>2017-09-03T15:58:59Z</time>
      </trkpt>
      <trkpt lat="43.60329" lon="5.5026">
        <ele>404</ele>
        <time>2017-09-03T15:59:15Z</time>
      </trkpt>
      <trkpt lat="43.60329" lon="5.50298">
        <ele>402</ele>
        <time>2017-09-03T15:59:30Z</time>
      </trkpt>
      <trkpt lat="43.60327" lon="5.50337">
        <ele>392</ele>
        <time>2017-09-03T15:59:45Z</time>
      </trkpt>
      <trkpt lat="43.60312" lon="5.50341">
        <ele>396</ele>
        <time>2017-09-03T16:00:10Z</time>
      </trkpt>
      <trkpt lat="43.60328" lon="5.50347">
        <ele>394</ele>
        <time>2017-09-03T16:00:26Z</time>
      </trkpt>
      <trkpt lat="43.60361" lon="5.50337">
        <ele>383</ele>
        <time>2017-09-03T16:00:42Z</time>
      </trkpt>
      <trkpt lat="43.60391" lon="5.50321">
        <ele>382</ele>
        <time>2017-09-03T16:00:58Z</time>
      </trkpt>
      <trkpt lat="43.60422" lon="5.50333">
        <ele>373</ele>
        <time>2017-09-03T16:01:13Z</time>
      </trkpt>
      <trkpt lat="43.60433" lon="5.50377">
        <ele>368</ele>
        <time>2017-09-03T16:01:29Z</time>
      </trkpt>
      <trkpt lat="43.60422" lon="5.5042">
        <ele>369</ele>
        <time>2017-09-03T16:01:44Z</time>
      </trkpt>
      <trkpt lat="43.60429" lon="5.50468">
        <ele>369</ele>
        <time>2017-09-03T16:02:00Z</time>
      </trkpt>
      <trkpt lat="43.60431" lon="5.50509">
        <ele>372</ele>
        <time>2017-09-03T16:02:15Z</time>
      </trkpt>
      <trkpt lat="43.60427" lon="5.50565">
        <ele>372</ele>
        <time>2017-09-03T16:02:31Z</time>
      </trkpt>
      <trkpt lat="43.6043" lon="5.50616">
        <ele>369</ele>
        <time>2017-09-03T16:02:47Z</time>
      </trkpt>
      <trkpt lat="43.60421" lon="5.50677">
        <ele>366</ele>
        <time>2017-09-03T16:03:03Z</time>
      </trkpt>
      <trkpt lat="43.60413" lon="5.50723">
        <ele>370</ele>
        <time>2017-09-03T16:03:19Z</time>
      </trkpt>
      <trkpt lat="43.60404" lon="5.5077">
        <ele>365</ele>
        <time>2017-09-03T16:03:34Z</time>
      </trkpt>
      <trkpt lat="43.60401" lon="5.50808">
        <ele>364</ele>
        <time>2017-09-03T16:03:50Z</time>
      </trkpt>
      <trkpt lat="43.60416" lon="5.50868">
        <ele>359</ele>
        <time>2017-09-03T16:04:06Z</time>
      </trkpt>
      <trkpt lat="43.60422" lon="5.50912">
        <ele>356</ele>
        <time>2017-09-03T16:04:21Z</time>
      </trkpt>
      <trkpt lat="43.60431" lon="5.50935">
        <ele>356</ele>
        <time>2017-09-03T16:04:44Z</time>
      </trkpt>
      <trkpt lat="43.60453" lon="5.5094">
        <ele>355</ele>
        <time>2017-09-03T16:04:59Z</time>
      </trkpt>
      <trkpt lat="43.60496" lon="5.50942">
        <ele>354</ele>
        <time>2017-09-03T16:05:14Z</time>
      </trkpt>
      <trkpt lat="43.60525" lon="5.50968">
        <ele>351</ele>
        <time>2017-09-03T16:05:30Z</time>
      </trkpt>
      <trkpt lat="43.60519" lon="5.51023">
        <ele>354</ele>
        <time>2017-09-03T16:05:46Z</time>
      </trkpt>
      <trkpt lat="43.605" lon="5.5107">
        <ele>356</ele>
        <time>2017-09-03T16:06:01Z</time>
      </trkpt>
      <trkpt lat="43.6048" lon="5.51113">
        <ele>357</ele>
        <time>2017-09-03T16:06:17Z</time>
      </trkpt>
      <trkpt lat="43.60453" lon="5.51148">
        <ele>356</ele>
        <time>2017-09-03T16:06:32Z</time>
      </trkpt>
      <trkpt lat="43.60423" lon="5.51185">
        <ele>352</ele>
        <time>2017-09-03T16:06:48Z</time>
      </trkpt>
      <trkpt lat="43.60397" lon="5.51215">
        <ele>351</ele>
        <time>2017-09-03T16:07:04Z</time>
      </trkpt>
      <trkpt lat="43.60346" lon="5.51243">
        <ele>350</ele>
        <time>2017-09-03T16:07:20Z</time>
      </trkpt>
      <trkpt lat="43.60327" lon="5.51284">
        <ele>346</ele>
        <time>2017-09-03T16:07:35Z</time>
      </trkpt>
      <trkpt lat="43.6029" lon="5.51313">
        <ele>345</ele>
        <time>2017-09-03T16:07:50Z</time>
      </trkpt>
      <trkpt lat="43.6026" lon="5.51333">
        <ele>343</ele>
        <time>2017-09-03T16:08:05Z</time>
      </trkpt>
      <trkpt lat="43.60224" lon="5.51357">
        <ele>331</ele>
        <time>2017-09-03T16:08:20Z</time>
      </trkpt>
      <trkpt lat="43.60185" lon="5.51364">
        <ele>329</ele>
        <time>2017-09-03T16:08:36Z</time>
      </trkpt>
      <trkpt lat="43.60164" lon="5.51401">
        <ele>322</ele>
        <time>2017-09-03T16:08:51Z</time>
      </trkpt>
      <trkpt lat="43.60115" lon="5.51435">
        <ele>314</ele>
        <time>2017-09-03T16:09:06Z</time>
      </trkpt>
      <trkpt lat="43.60086" lon="5.51483">
        <ele>309</ele>
        <time>2017-09-03T16:09:22Z</time>
      </trkpt>
      <trkpt lat="43.60064" lon="5.51531">
        <ele>307</ele>
        <time>2017-09-03T16:09:37Z</time>
      </trkpt>
      <trkpt lat="43.60028" lon="5.51576">
        <ele>306</ele>
        <time>2017-09-03T16:09:53Z</time>
      </trkpt>
      <trkpt lat="43.59996" lon="5.51604">
        <ele>307</ele>
        <time>2017-09-03T16:10:09Z</time>
      </trkpt>
      <trkpt lat="43.59967" lon="5.51627">
        <ele>307</ele>
        <time>2017-09-03T16:10:24Z</time>
      </trkpt>
      <trkpt lat="43.59933" lon="5.51648">
        <ele>307</ele>
        <time>2017-09-03T16:10:39Z</time>
      </trkpt>
      <trkpt lat="43.59903" lon="5.51679">
        <ele>305</ele>
        <time>2017-09-03T16:10:54Z</time>
      </trkpt>
      <trkpt lat="43.59914" lon="5.51694">
        <ele>304</ele>
        <time>2017-09-03T16:11:34Z</time>
      </trkpt>
      <trkpt lat="43.59934" lon="5.51753">
        <ele>295</ele>
        <time>2017-09-03T16:11:49Z</time>
      </trkpt>
      <trkpt lat="43.59944" lon="5.51808">
        <ele>295</ele>
        <time>2017-09-03T16:12:04Z</time>
      </trkpt>
      <trkpt lat="43.59914" lon="5.51841">
        <ele>295</ele>
        <time>2017-09-03T16:12:20Z</time>
      </trkpt>
      <trkpt lat="43.59873" lon="5.51856">
        <ele>297</ele>
        <time>2017-09-03T16:12:35Z</time>
      </trkpt>
      <trkpt lat="43.59821" lon="5.51853">
        <ele>299</ele>
        <time>2017-09-03T16:12:51Z</time>
      </trkpt>
      <trkpt lat="43.59791" lon="5.51861">
        <ele>300</ele>
        <time>2017-09-03T16:13:06Z</time>
      </trkpt>
      <trkpt lat="43.59759" lon="5.51866">
        <ele>301</ele>
        <time>2017-09-03T16:13:21Z</time>
      </trkpt>
      <trkpt lat="43.59731" lon="5.51881">
        <ele>303</ele>
        <time>2017-09-03T16:13:37Z</time>
      </trkpt>
      <trkpt lat="43.59702" lon="5.51867">
        <ele>303</ele>
        <time>2017-09-03T16:13:53Z</time>
      </trkpt>
      <trkpt lat="43.59706" lon="5.51891">
        <ele>303</ele>
        <time>2017-09-03T16:14:08Z</time>
      </trkpt>
      <trkpt lat="43.59718" lon="5.51912">
        <ele>303</ele>
        <time>2017-09-03T16:14:24Z</time>
      </trkpt>
      <trkpt lat="43.59723" lon="5.51967">
        <ele>305</ele>
        <time>2017-09-03T16:14:40Z</time>
      </trkpt>
      <trkpt lat="43.59727" lon="5.52019">
        <ele>307</ele>
        <time>2017-09-03T16:14:55Z</time>
      </trkpt>
      <trkpt lat="43.59718" lon="5.52064">
        <ele>307</ele>
        <time>2017-09-03T16:15:11Z</time>
      </trkpt>
      <trkpt lat="43.59701" lon="5.521">
        <ele>309</ele>
        <time>2017-09-03T16:15:26Z</time>
      </trkpt>
      <trkpt lat="43.59686" lon="5.52147">
        <ele>310</ele>
        <time>2017-09-03T16:15:42Z</time>
      </trkpt>
      <trkpt lat="43.59673" lon="5.52151">
        <ele>311</ele>
        <time>2017-09-03T16:15:57Z</time>
      </trkpt>
      <trkpt lat="43.5965" lon="5.52136">
        <ele>316</ele>
        <time>2017-09-03T16:16:12Z</time>
      </trkpt>
      <trkpt lat="43.59629" lon="5.52112">
        <ele>316</ele>
        <time>2017-09-03T16:16:28Z</time>
      </trkpt>
      <trkpt lat="43.59607" lon="5.52083">
        <ele>314</ele>
        <time>2017-09-03T16:16:43Z</time>
      </trkpt>
      <trkpt lat="43.59585" lon="5.52061">
        <ele>314</ele>
        <time>2017-09-03T16:16:59Z</time>
      </trkpt>
      <trkpt lat="43.59566" lon="5.52045">
        <ele>319</ele>
        <time>2017-09-03T16:17:14Z</time>
      </trkpt>
      <trkpt lat="43.59539" lon="5.52028">
        <ele>320</ele>
        <time>2017-09-03T16:17:30Z</time>
      </trkpt>
      <trkpt lat="43.59508" lon="5.51994">
        <ele>318</ele>
        <time>2017-09-03T16:17:46Z</time>
      </trkpt>
      <trkpt lat="43.59482" lon="5.51963">
        <ele>323</ele>
        <time>2017-09-03T16:18:01Z</time>
      </trkpt>
      <trkpt lat="43.59469" lon="5.51941">
        <ele>323</ele>
        <time>2017-09-03T16:18:16Z</time>
      </trkpt>
      <trkpt lat="43.59451" lon="5.51916">
        <ele>321</ele>
        <time>2017-09-03T16:18:32Z</time>
      </trkpt>
      <trkpt lat="43.59432" lon="5.51886">
        <ele>322</ele>
        <time>2017-09-03T16:18:47Z</time>
      </trkpt>
      <trkpt lat="43.59412" lon="5.51853">
        <ele>328</ele>
        <time>2017-09-03T16:19:03Z</time>
      </trkpt>
      <trkpt lat="43.59399" lon="5.51824">
        <ele>327</ele>
        <time>2017-09-03T16:19:18Z</time>
      </trkpt>
      <trkpt lat="43.59384" lon="5.51796">
        <ele>329</ele>
        <time>2017-09-03T16:19:33Z</time>
      </trkpt>
      <trkpt lat="43.59382" lon="5.51745">
        <ele>324</ele>
        <time>2017-09-03T16:19:48Z</time>
      </trkpt>
      <trkpt lat="43.5938" lon="5.51701">
        <ele>324</ele>
        <time>2017-09-03T16:20:04Z</time>
      </trkpt>
      <trkpt lat="43.594" lon="5.51684">
        <ele>320</ele>
        <time>2017-09-03T16:20:19Z</time>
      </trkpt>
      <trkpt lat="43.59403" lon="5.51662">
        <ele>315</ele>
        <time>2017-09-03T16:20:35Z</time>
      </trkpt>
      <trkpt lat="43.59396" lon="5.51643">
        <ele>316</ele>
        <time>2017-09-03T16:20:50Z</time>
      </trkpt>
      <trkpt lat="43.59374" lon="5.51618">
        <ele>316</ele>
        <time>2017-09-03T16:21:06Z</time>
      </trkpt>
      <trkpt lat="43.59346" lon="5.5159">
        <ele>315</ele>
        <time>2017-09-03T16:21:22Z</time>
      </trkpt>
      <trkpt lat="43.59331" lon="5.51549">
        <ele>315</ele>
        <time>2017-09-03T16:21:37Z</time>
      </trkpt>
      <trkpt lat="43.59315" lon="5.51521">
        <ele>315</ele>
        <time>2017-09-03T16:21:53Z</time>
      </trkpt>
      <trkpt lat="43.59297" lon="5.51497">
        <ele>316</ele>
        <time>2017-09-03T16:22:09Z</time>
      </trkpt>
      <trkpt lat="43.59278" lon="5.51467">
        <ele>317</ele>
        <time>2017-09-03T16:22:25Z</time>
      </trkpt>
      <trkpt lat="43.5926" lon="5.51423">
        <ele>317</ele>
        <time>2017-09-03T16:22:40Z</time>
      </trkpt>
      <trkpt lat="43.59246" lon="5.51385">
        <ele>318</ele>
        <time>2017-09-03T16:22:55Z</time>
      </trkpt>
      <trkpt lat="43.59257" lon="5.51352">
        <ele>318</ele>
        <time>2017-09-03T16:23:11Z</time>
      </trkpt>
      <trkpt lat="43.59274" lon="5.51339">
        <ele>319</ele>
        <time>2017-09-03T16:23:26Z</time>
      </trkpt>
      <trkpt lat="43.59283" lon="5.51324">
        <ele>321</ele>
        <time>2017-09-03T16:24:19Z</time>
      </trkpt>
      <trkpt lat="43.59301" lon="5.513">
        <ele>322</ele>
        <time>2017-09-03T16:24:35Z</time>
      </trkpt>
      <trkpt lat="43.5932" lon="5.51271">
        <ele>324</ele>
        <time>2017-09-03T16:24:51Z</time>
      </trkpt>
      <trkpt lat="43.59323" lon="5.51251">
        <ele>325</ele>
        <time>2017-09-03T16:25:06Z</time>
      </trkpt>
      <trkpt lat="43.59333" lon="5.51235">
        <ele>327</ele>
        <time>2017-09-03T16:25:37Z</time>
      </trkpt>
      <trkpt lat="43.59339" lon="5.51208">
        <ele>334</ele>
        <time>2017-09-03T16:25:52Z</time>
      </trkpt>
      <trkpt lat="43.5935" lon="5.51187">
        <ele>336</ele>
        <time>2017-09-03T16:26:07Z</time>
      </trkpt>
      <trkpt lat="43.59356" lon="5.51154">
        <ele>340</ele>
        <time>2017-09-03T16:26:23Z</time>
      </trkpt>
      <trkpt lat="43.59374" lon="5.51135">
        <ele>341</ele>
        <time>2017-09-03T16:26:38Z</time>
      </trkpt>
      <trkpt lat="43.59384" lon="5.51106">
        <ele>342</ele>
        <time>2017-09-03T16:26:54Z</time>
      </trkpt>
      <trkpt lat="43.594" lon="5.51078">
        <ele>344</ele>
        <time>2017-09-03T16:27:10Z</time>
      </trkpt>
      <trkpt lat="43.5941" lon="5.51059">
        <ele>345</ele>
        <time>2017-09-03T16:27:25Z</time>
      </trkpt>
      <trkpt lat="43.59423" lon="5.51036">
        <ele>346</ele>
        <time>2017-09-03T16:27:40Z</time>
      </trkpt>
      <trkpt lat="43.59422" lon="5.51009">
        <ele>347</ele>
        <time>2017-09-03T16:27:55Z</time>
      </trkpt>
      <trkpt lat="43.59416" lon="5.50989">
        <ele>350</ele>
        <time>2017-09-03T16:28:14Z</time>
      </trkpt>
      <trkpt lat="43.59407" lon="5.50975">
        <ele>352</ele>
        <time>2017-09-03T16:28:29Z</time>
      </trkpt>
      <trkpt lat="43.59392" lon="5.50974">
        <ele>353</ele>
        <time>2017-09-03T16:29:09Z</time>
      </trkpt>
      <trkpt lat="43.59353" lon="5.51015">
        <ele>350</ele>
        <time>2017-09-03T16:29:25Z</time>
      </trkpt>
      <trkpt lat="43.59325" lon="5.51049">
        <ele>347</ele>
        <time>2017-09-03T16:29:41Z</time>
      </trkpt>
      <trkpt lat="43.59299" lon="5.51088">
        <ele>340</ele>
        <time>2017-09-03T16:29:56Z</time>
      </trkpt>
      <trkpt lat="43.59276" lon="5.51065">
        <ele>343</ele>
        <time>2017-09-03T16:30:12Z</time>
      </trkpt>
      <trkpt lat="43.59283" lon="5.5101">
        <ele>346</ele>
        <time>2017-09-03T16:30:28Z</time>
      </trkpt>
      <trkpt lat="43.59301" lon="5.50968">
        <ele>353</ele>
        <time>2017-09-03T16:30:43Z</time>
      </trkpt>
      <trkpt lat="43.59293" lon="5.50931">
        <ele>354</ele>
        <time>2017-09-03T16:30:59Z</time>
      </trkpt>
      <trkpt lat="43.59262" lon="5.50909">
        <ele>357</ele>
        <time>2017-09-03T16:31:15Z</time>
      </trkpt>
      <trkpt lat="43.59233" lon="5.50893">
        <ele>353</ele>
        <time>2017-09-03T16:31:30Z</time>
      </trkpt>
      <trkpt lat="43.59225" lon="5.50843">
        <ele>356</ele>
        <time>2017-09-03T16:31:45Z</time>
      </trkpt>
      <trkpt lat="43.59209" lon="5.50805">
        <ele>358</ele>
        <time>2017-09-03T16:32:01Z</time>
      </trkpt>
      <trkpt lat="43.59206" lon="5.50752">
        <ele>360</ele>
        <time>2017-09-03T16:32:16Z</time>
      </trkpt>
      <trkpt lat="43.59182" lon="5.50747">
        <ele>361</ele>
        <time>2017-09-03T16:32:31Z</time>
      </trkpt>
      <trkpt lat="43.5915" lon="5.50737">
        <ele>356</ele>
        <time>2017-09-03T16:32:47Z</time>
      </trkpt>
      <trkpt lat="43.59129" lon="5.50704">
        <ele>355</ele>
        <time>2017-09-03T16:33:02Z</time>
      </trkpt>
      <trkpt lat="43.59141" lon="5.50651">
        <ele>356</ele>
        <time>2017-09-03T16:33:17Z</time>
      </trkpt>
      <trkpt lat="43.5914" lon="5.50632">
        <ele>355</ele>
        <time>2017-09-03T16:33:47Z</time>
      </trkpt>
      <trkpt lat="43.59153" lon="5.50601">
        <ele>356</ele>
        <time>2017-09-03T16:34:02Z</time>
      </trkpt>
      <trkpt lat="43.59139" lon="5.50607">
        <ele>354</ele>
        <time>2017-09-03T16:34:21Z</time>
      </trkpt>
      <trkpt lat="43.59112" lon="5.50604">
        <ele>352</ele>
        <time>2017-09-03T16:34:36Z</time>
      </trkpt>
      <trkpt lat="43.59085" lon="5.50604">
        <ele>349</ele>
        <time>2017-09-03T16:34:51Z</time>
      </trkpt>
      <trkpt lat="43.59071" lon="5.50602">
        <ele>345</ele>
        <time>2017-09-03T16:35:06Z</time>
      </trkpt>
      <trkpt lat="43.59078" lon="5.50577">
        <ele>346</ele>
        <time>2017-09-03T16:35:21Z</time>
      </trkpt>
      <trkpt lat="43.59095" lon="5.50548">
        <ele>352</ele>
        <time>2017-09-03T16:35:37Z</time>
      </trkpt>
      <trkpt lat="43.59097" lon="5.50524">
        <ele>353</ele>
        <time>2017-09-03T16:35:53Z</time>
      </trkpt>
      <trkpt lat="43.591" lon="5.50499">
        <ele>355</ele>
        <time>2017-09-03T16:36:09Z</time>
      </trkpt>
      <trkpt lat="43.59112" lon="5.50471">
        <ele>356</ele>
        <time>2017-09-03T16:36:24Z</time>
      </trkpt>
      <trkpt lat="43.59134" lon="5.50456">
        <ele>356</ele>
        <time>2017-09-03T16:36:39Z</time>
      </trkpt>
      <trkpt lat="43.59152" lon="5.50432">
        <ele>356</ele>
        <time>2017-09-03T16:36:55Z</time>
      </trkpt>
      <trkpt lat="43.59167" lon="5.5041">
        <ele>356</ele>
        <time>2017-09-03T16:37:10Z</time>
      </trkpt>
      <trkpt lat="43.59186" lon="5.50395">
        <ele>358</ele>
        <time>2017-09-03T16:37:25Z</time>
      </trkpt>
      <trkpt lat="43.59214" lon="5.50383">
        <ele>359</ele>
        <time>2017-09-03T16:37:41Z</time>
      </trkpt>
      <trkpt lat="43.59237" lon="5.50386">
        <ele>359</ele>
        <time>2017-09-03T16:37:57Z</time>
      </trkpt>
      <trkpt lat="43.59259" lon="5.50398">
        <ele>363</ele>
        <time>2017-09-03T16:38:13Z</time>
      </trkpt>
      <trkpt lat="43.59279" lon="5.50414">
        <ele>364</ele>
        <time>2017-09-03T16:38:29Z</time>
      </trkpt>
      <trkpt lat="43.59294" lon="5.50435">
        <ele>367</ele>
        <time>2017-09-03T16:38:44Z</time>
      </trkpt>
      <trkpt lat="43.59307" lon="5.50449">
        <ele>368</ele>
        <time>2017-09-03T16:38:59Z</time>
      </trkpt>
      <trkpt lat="43.59327" lon="5.50468">
        <ele>369</ele>
        <time>2017-09-03T16:39:15Z</time>
      </trkpt>
      <trkpt lat="43.59339" lon="5.50485">
        <ele>372</ele>
        <time>2017-09-03T16:39:31Z</time>
      </trkpt>
      <trkpt lat="43.5935" lon="5.50496">
        <ele>372</ele>
        <time>2017-09-03T16:40:02Z</time>
      </trkpt>
      <trkpt lat="43.59375" lon="5.50497">
        <ele>374</ele>
        <time>2017-09-03T16:40:18Z</time>
      </trkpt>
      <trkpt lat="43.59403" lon="5.50499">
        <ele>375</ele>
        <time>2017-09-03T16:40:33Z</time>
      </trkpt>
      <trkpt lat="43.59434" lon="5.50497">
        <ele>380</ele>
        <time>2017-09-03T16:40:48Z</time>
      </trkpt>
      <trkpt lat="43.59452" lon="5.50487">
        <ele>382</ele>
        <time>2017-09-03T16:41:04Z</time>
      </trkpt>
      <trkpt lat="43.59479" lon="5.50491">
        <ele>384</ele>
        <time>2017-09-03T16:41:20Z</time>
      </trkpt>
      <trkpt lat="43.595" lon="5.50495">
        <ele>385</ele>
        <time>2017-09-03T16:41:35Z</time>
      </trkpt>
      <trkpt lat="43.59516" lon="5.50483">
        <ele>389</ele>
        <time>2017-09-03T16:41:50Z</time>
      </trkpt>
      <trkpt lat="43.59534" lon="5.50476">
        <ele>390</ele>
        <time>2017-09-03T16:42:06Z</time>
      </trkpt>
      <trkpt lat="43.59555" lon="5.50492">
        <ele>391</ele>
        <time>2017-09-03T16:42:22Z</time>
      </trkpt>
      <trkpt lat="43.59576" lon="5.50497">
        <ele>392</ele>
        <time>2017-09-03T16:42:38Z</time>
      </trkpt>
      <trkpt lat="43.59612" lon="5.50501">
        <ele>400</ele>
        <time>2017-09-03T16:43:08Z</time>
      </trkpt>
      <trkpt lat="43.5963" lon="5.50501">
        <ele>403</ele>
        <time>2017-09-03T16:43:24Z</time>
      </trkpt>
      <trkpt lat="43.59644" lon="5.50499">
        <ele>406</ele>
        <time>2017-09-03T16:43:41Z</time>
      </trkpt>
      <trkpt lat="43.59655" lon="5.50488">
        <ele>408</ele>
        <time>2017-09-03T16:43:57Z</time>
      </trkpt>
      <trkpt lat="43.59666" lon="5.50504">
        <ele>410</ele>
        <time>2017-09-03T16:44:13Z</time>
      </trkpt>
      <trkpt lat="43.59679" lon="5.50532">
        <ele>411</ele>
        <time>2017-09-03T16:44:29Z</time>
      </trkpt>
      <trkpt lat="43.59693" lon="5.50536">
        <ele>411</ele>
        <time>2017-09-03T16:44:48Z</time>
      </trkpt>
      <trkpt lat="43.59707" lon="5.50524">
        <ele>412</ele>
        <time>2017-09-03T16:45:04Z</time>
      </trkpt>
      <trkpt lat="43.59715" lon="5.50509">
        <ele>414</ele>
        <time>2017-09-03T16:45:23Z</time>
      </trkpt>
      <trkpt lat="43.59724" lon="5.50495">
        <ele>421</ele>
        <time>2017-09-03T16:45:55Z</time>
      </trkpt>
      <trkpt lat="43.59746" lon="5.50489">
        <ele>423</ele>
        <time>2017-09-03T16:46:11Z</time>
      </trkpt>
      <trkpt lat="43.59779" lon="5.50478">
        <ele>425</ele>
        <time>2017-09-03T16:46:27Z</time>
      </trkpt>
      <trkpt lat="43.59765" lon="5.50482">
        <ele>425</ele>
        <time>2017-09-03T16:47:01Z</time>
      </trkpt>
      <trkpt lat="43.59743" lon="5.50481">
        <ele>423</ele>
        <time>2017-09-03T16:47:17Z</time>
      </trkpt>
      <trkpt lat="43.59721" lon="5.5049">
        <ele>421</ele>
        <time>2017-09-03T16:47:32Z</time>
      </trkpt>
      <trkpt lat="43.59705" lon="5.5046">
        <ele>421</ele>
        <time>2017-09-03T16:47:47Z</time>
      </trkpt>
      <trkpt lat="43.59685" lon="5.50433">
        <ele>419</ele>
        <time>2017-09-03T16:48:02Z</time>
      </trkpt>
      <trkpt lat="43.59678" lon="5.50388">
        <ele>420</ele>
        <time>2017-09-03T16:48:17Z</time>
      </trkpt>
      <trkpt lat="43.59686" lon="5.50346">
        <ele>419</ele>
        <time>2017-09-03T16:48:32Z</time>
      </trkpt>
      <trkpt lat="43.59718" lon="5.50305">
        <ele>417</ele>
        <time>2017-09-03T16:48:47Z</time>
      </trkpt>
      <trkpt lat="43.59748" lon="5.50256">
        <ele>415</ele>
        <time>2017-09-03T16:49:03Z</time>
      </trkpt>
      <trkpt lat="43.59764" lon="5.50207">
        <ele>412</ele>
        <time>2017-09-03T16:49:18Z</time>
      </trkpt>
      <trkpt lat="43.59759" lon="5.50151">
        <ele>408</ele>
        <time>2017-09-03T16:49:34Z</time>
      </trkpt>
      <trkpt lat="43.59745" lon="5.50084">
        <ele>409</ele>
        <time>2017-09-03T16:49:49Z</time>
      </trkpt>
      <trkpt lat="43.59735" lon="5.5002">
        <ele>407</ele>
        <time>2017-09-03T16:50:04Z</time>
      </trkpt>
      <trkpt lat="43.59722" lon="5.49967">
        <ele>407</ele>
        <time>2017-09-03T16:50:20Z</time>
      </trkpt>
      <trkpt lat="43.59706" lon="5.49944">
        <ele>407</ele>
        <time>2017-09-03T16:50:35Z</time>
      </trkpt>
      <trkpt lat="43.5969" lon="5.49911">
        <ele>408</ele>
        <time>2017-09-03T16:50:51Z</time>
      </trkpt>
      <trkpt lat="43.59678" lon="5.49859">
        <ele>408</ele>
        <time>2017-09-03T16:51:07Z</time>
      </trkpt>
      <trkpt lat="43.59674" lon="5.49823">
        <ele>408</ele>
        <time>2017-09-03T16:51:22Z</time>
      </trkpt>
      <trkpt lat="43.59683" lon="5.49801">
        <ele>408</ele>
        <time>2017-09-03T16:51:37Z</time>
      </trkpt>
    </trkseg>
  </trk>
</gpx>